createdAt,value
2018-05-12T00:02:17.581Z,75.76
2018-05-12T00:05:20.081Z,75.31
2018-05-12T00:08:22.564Z,75.01
2018-05-12T00:11:24.998Z,75.63
2018-05-12T00:14:27.491Z,75.31
2018-05-12T00:17:29.988Z,75.22
2018-05-12T00:20:32.549Z,74.66
2018-05-12T00:23:35.113Z,74.72
2018-05-12T00:26:37.674Z,74.68
2018-05-12T00:29:40.143Z,74.56
2018-05-12T00:32:42.612Z,74.48
2018-05-12T00:35:45.059Z,74.86
2018-05-12T00:38:47.613Z,75.70
2018-05-12T00:41:50.073Z,76.02
2018-05-12T00:44:52.571Z,75.05
2018-05-12T00:47:55.096Z,74.79
2018-05-12T00:50:57.556Z,74.67
2018-05-12T00:54:00.002Z,74.56
2018-05-12T00:57:02.583Z,74.76
2018-05-12T01:00:05.046Z,75.03
2018-05-12T01:03:07.608Z,74.73
2018-05-12T01:06:10.209Z,74.63
2018-05-12T01:09:12.768Z,74.69
2018-05-12T01:12:15.253Z,74.58
2018-05-12T01:15:17.730Z,74.43
2018-05-12T01:18:20.220Z,74.44
2018-05-12T01:21:22.781Z,75.08
2018-05-12T01:24:25.355Z,75.05
2018-05-12T01:27:27.849Z,74.12
2018-05-12T01:30:30.343Z,74.32
2018-05-12T01:33:32.803Z,74.41
2018-05-12T01:36:35.273Z,74.62
2018-05-12T01:39:37.744Z,74.68
2018-05-12T01:42:40.197Z,74.63
2018-05-12T01:45:42.769Z,74.97
2018-05-12T01:48:45.333Z,75.74
2018-05-12T01:51:47.898Z,75.66
2018-05-12T01:54:50.393Z,75.60
2018-05-12T01:57:52.873Z,75.28
2018-05-12T02:00:55.372Z,74.79
2018-05-12T02:03:57.839Z,75.14
2018-05-12T02:07:00.403Z,76.17
2018-05-12T02:10:02.818Z,75.33
2018-05-12T02:13:05.304Z,76.44
2018-05-12T02:16:07.800Z,76.13
2018-05-12T02:19:10.357Z,75.82
2018-05-12T02:22:12.908Z,75.63
2018-05-12T02:25:15.378Z,75.93
2018-05-12T02:28:17.929Z,75.78
2018-05-12T02:31:20.493Z,76.66
2018-05-12T02:34:22.964Z,76.44
2018-05-12T02:37:25.409Z,76.37
2018-05-12T02:40:27.987Z,75.67
2018-05-12T02:43:30.447Z,76.13
2018-05-12T02:46:33.108Z,75.79
2018-05-12T02:49:35.552Z,75.64
2018-05-12T02:52:38.038Z,75.74
2018-05-12T02:55:40.494Z,74.62
2018-05-12T02:58:43.052Z,74.76
2018-05-12T03:01:45.535Z,74.47
2018-05-12T03:04:48.074Z,74.77
2018-05-12T03:07:50.639Z,74.27
2018-05-12T03:10:53.129Z,73.95
2018-05-12T03:13:55.659Z,74.04
2018-05-12T03:16:58.097Z,73.66
2018-05-12T03:20:00.679Z,73.37
2018-05-12T03:23:03.250Z,72.93
2018-05-12T03:26:05.770Z,73.50
2018-05-12T03:29:08.253Z,73.62
2018-05-12T03:32:10.792Z,73.20
2018-05-12T03:35:13.223Z,73.12
2018-05-12T03:38:15.693Z,73.06
2018-05-12T03:41:18.217Z,73.21
2018-05-12T03:44:20.779Z,73.28
2018-05-12T03:47:23.230Z,73.40
2018-05-12T03:50:25.748Z,73.49
2018-05-12T03:53:28.329Z,73.66
2018-05-12T03:56:30.773Z,73.87
2018-05-12T03:59:33.284Z,74.47
2018-05-12T04:02:35.732Z,74.09
2018-05-12T04:05:50.119Z,74.65
2018-05-12T04:09:04.405Z,74.24
2018-05-12T04:12:19.533Z,74.47
2018-05-12T04:15:21.990Z,75.63
2018-05-12T04:18:24.459Z,75.86
2018-05-12T04:21:26.938Z,75.94
2018-05-12T04:24:29.502Z,76.08
2018-05-12T04:27:31.967Z,76.31
2018-05-12T04:30:34.517Z,75.99
2018-05-12T04:33:37.044Z,76.28
2018-05-12T04:36:39.549Z,76.05
2018-05-12T04:39:42.087Z,75.89
2018-05-12T04:42:44.570Z,75.38
2018-05-12T04:45:47.028Z,75.09
2018-05-12T04:48:49.589Z,75.29
2018-05-12T04:51:52.033Z,74.76
2018-05-12T04:54:54.530Z,74.77
2018-05-12T04:57:57.180Z,73.99
2018-05-12T05:00:59.739Z,74.03
2018-05-12T05:04:02.217Z,73.68
2018-05-12T05:07:04.716Z,72.29
2018-05-12T05:10:07.232Z,72.22
2018-05-12T05:13:09.754Z,71.93
2018-05-12T05:16:12.251Z,72.41
2018-05-12T05:19:14.754Z,71.43
2018-05-12T05:22:17.269Z,71.73
2018-05-12T05:25:19.755Z,71.15
2018-05-12T05:28:22.295Z,71.48
2018-05-12T05:31:24.761Z,70.48
2018-05-12T05:34:27.215Z,71.80
2018-05-12T05:37:29.784Z,72.23
2018-05-12T05:40:32.240Z,71.84
2018-05-12T05:43:34.750Z,70.85
2018-05-12T05:46:37.200Z,70.00
2018-05-12T05:49:39.780Z,69.23
2018-05-12T05:52:42.253Z,68.34
2018-05-12T05:55:44.730Z,68.26
2018-05-12T05:58:47.179Z,67.71
2018-05-12T06:01:49.771Z,67.36
2018-05-12T06:04:52.340Z,65.30
2018-05-12T06:07:54.800Z,62.49
2018-05-12T06:10:57.276Z,60.44
2018-05-12T06:13:59.818Z,59.33
2018-05-12T06:17:02.314Z,58.15
2018-05-12T06:20:04.752Z,58.19
2018-05-12T06:23:07.818Z,58.54
2018-05-12T06:26:10.305Z,57.10
2018-05-12T06:29:12.824Z,56.77
2018-05-12T06:32:15.297Z,57.45
2018-05-12T06:35:17.858Z,56.89
2018-05-12T06:38:20.376Z,56.76
2018-05-12T06:41:22.912Z,56.67
2018-05-12T06:44:25.428Z,57.23
2018-05-12T06:47:27.935Z,57.78
2018-05-12T06:50:30.400Z,57.22
2018-05-12T06:53:32.898Z,57.46
2018-05-12T06:56:35.596Z,58.60
2018-05-12T06:59:38.059Z,57.81
2018-05-12T07:02:40.555Z,57.93
2018-05-12T07:05:43.022Z,58.90
2018-05-12T07:08:45.521Z,59.64
2018-05-12T07:11:48.007Z,60.73
2018-05-12T07:14:51.993Z,59.75
2018-05-12T07:17:54.481Z,59.93
2018-05-12T07:20:57.028Z,60.31
2018-05-12T07:23:59.516Z,60.68
2018-05-12T07:27:02.043Z,59.38
2018-05-12T07:30:04.508Z,60.57
2018-05-12T07:33:07.016Z,59.35
2018-05-12T07:36:09.633Z,59.57
2018-05-12T07:39:12.133Z,58.66
2018-05-12T07:42:14.592Z,59.46
2018-05-12T07:45:17.145Z,60.14
2018-05-12T07:48:19.637Z,60.80
2018-05-12T07:51:22.139Z,61.11
2018-05-12T07:54:24.701Z,61.03
2018-05-12T07:57:27.196Z,59.52
2018-05-12T08:00:29.826Z,58.11
2018-05-12T08:03:32.364Z,59.95
2018-05-12T08:06:34.794Z,61.67
2018-05-12T08:09:37.341Z,60.69
2018-05-12T08:12:39.797Z,61.21
2018-05-12T08:15:42.339Z,63.08
2018-05-12T08:18:44.897Z,64.24
2018-05-12T08:21:47.565Z,63.63
2018-05-12T08:24:50.082Z,63.84
2018-05-12T08:27:52.546Z,61.46
2018-05-12T08:30:55.044Z,61.51
2018-05-12T08:33:57.506Z,62.63
2018-05-12T08:37:00.011Z,62.87
2018-05-12T08:40:02.543Z,63.59
2018-05-12T08:43:05.127Z,64.08
2018-05-12T08:46:07.618Z,63.64
2018-05-12T08:49:10.086Z,63.19
2018-05-12T08:52:12.672Z,63.62
2018-05-12T08:55:15.199Z,61.89
2018-05-12T08:58:17.667Z,61.33
2018-05-12T09:01:20.173Z,62.37
2018-05-12T09:04:22.681Z,60.88
2018-05-12T09:07:25.161Z,56.47
2018-05-12T09:10:27.853Z,54.92
2018-05-12T09:13:30.412Z,55.74
2018-05-12T09:16:32.921Z,55.92
2018-05-12T09:19:35.370Z,56.74
2018-05-12T09:22:37.897Z,56.11
2018-05-12T09:25:40.488Z,57.59
2018-05-12T09:28:42.859Z,55.17
2018-05-12T09:31:45.768Z,56.79
2018-05-12T09:34:48.272Z,56.52
2018-05-12T09:37:50.728Z,57.65
2018-05-12T09:40:53.268Z,57.05
2018-05-12T09:43:55.797Z,55.49
2018-05-12T09:46:58.309Z,55.76
2018-05-12T09:50:00.839Z,54.98
2018-05-12T09:53:03.288Z,57.15
2018-05-12T09:56:05.789Z,56.21
2018-05-12T09:59:08.283Z,54.95
2018-05-12T10:02:10.802Z,57.27
2018-05-12T10:05:13.293Z,56.08
2018-05-12T10:08:15.747Z,54.22
2018-05-12T10:11:18.387Z,51.95
2018-05-12T10:14:20.868Z,54.75
2018-05-12T10:17:23.422Z,53.72
2018-05-12T10:20:25.868Z,53.04
2018-05-12T10:23:28.512Z,49.63
2018-05-12T10:26:31.038Z,49.42
2018-05-12T10:29:33.634Z,48.77
2018-05-12T10:32:36.152Z,47.25
2018-05-12T10:35:38.634Z,48.85
2018-05-12T10:38:41.125Z,46.63
2018-05-12T10:41:43.712Z,47.77
2018-05-12T10:44:46.337Z,48.90
2018-05-12T10:47:48.779Z,48.32
2018-05-12T10:50:51.274Z,44.92
2018-05-12T10:53:53.760Z,47.75
2018-05-12T10:56:56.243Z,49.37
2018-05-12T10:59:58.719Z,47.86
2018-05-12T11:03:01.196Z,48.31
2018-05-12T11:06:03.808Z,48.63
2018-05-12T11:09:06.287Z,50.63
2018-05-12T11:12:08.780Z,48.76
2018-05-12T11:15:11.281Z,47.94
2018-05-12T11:18:13.774Z,48.94
2018-05-12T11:21:16.250Z,49.34
2018-05-12T11:24:18.761Z,50.13
2018-05-12T11:27:21.206Z,50.05
2018-05-12T11:30:23.761Z,49.77
2018-05-12T11:33:26.344Z,51.40
2018-05-12T11:36:28.928Z,51.62
2018-05-12T11:39:31.456Z,52.11
2018-05-12T11:42:33.900Z,50.79
2018-05-12T11:45:36.377Z,51.82
2018-05-12T11:48:38.876Z,51.91
2018-05-12T11:51:41.381Z,53.27
2018-05-12T11:54:43.875Z,54.30
2018-05-12T11:57:46.376Z,52.13
2018-05-12T12:00:48.944Z,52.48
2018-05-12T12:03:51.622Z,53.21
2018-05-12T12:06:54.041Z,53.22
2018-05-12T12:09:56.504Z,54.16
2018-05-12T12:12:59.006Z,54.43
2018-05-12T12:16:01.485Z,53.20
2018-05-12T12:19:04.076Z,52.85
2018-05-12T12:22:06.636Z,51.75
2018-05-12T12:25:09.157Z,50.19
2018-05-12T12:28:11.655Z,51.79
2018-05-12T12:31:14.236Z,53.75
2018-05-12T12:34:16.705Z,53.12
2018-05-12T12:37:19.324Z,51.21
2018-05-12T12:40:21.858Z,51.46
2018-05-12T12:43:24.363Z,53.51
2018-05-12T12:46:26.845Z,53.33
2018-05-12T12:49:29.356Z,52.61
2018-05-12T12:52:31.861Z,53.07
2018-05-12T12:55:34.342Z,51.24
2018-05-12T12:58:36.831Z,51.90
2018-05-12T13:01:39.380Z,51.10
2018-05-12T13:04:41.856Z,52.17
2018-05-12T13:07:44.337Z,51.11
2018-05-12T13:10:46.815Z,52.01
2018-05-12T13:13:50.076Z,52.69
2018-05-12T13:16:52.579Z,50.95
2018-05-12T13:19:55.063Z,50.58
2018-05-12T13:22:57.550Z,52.13
2018-05-12T13:26:00.160Z,51.92
2018-05-12T13:29:02.611Z,54.01
2018-05-12T13:32:05.162Z,54.12
2018-05-12T13:35:07.674Z,55.33
2018-05-12T13:38:10.207Z,54.43
2018-05-12T13:41:12.686Z,55.07
2018-05-12T13:44:15.184Z,54.75
2018-05-12T13:47:17.765Z,54.71
2018-05-12T13:50:20.254Z,55.33
2018-05-12T13:53:22.766Z,53.98
2018-05-12T13:56:25.495Z,54.54
2018-05-12T13:59:27.977Z,53.39
2018-05-12T14:02:30.502Z,53.91
2018-05-12T14:05:32.986Z,54.36
2018-05-12T14:08:35.589Z,55.67
2018-05-12T14:11:38.145Z,53.52
2018-05-12T14:14:40.652Z,54.49
2018-05-12T14:17:43.152Z,54.97
2018-05-12T14:20:45.677Z,53.43
2018-05-12T14:23:48.232Z,53.92
2018-05-12T14:26:50.800Z,53.34
2018-05-12T14:29:53.318Z,54.62
2018-05-12T14:32:55.885Z,53.75
2018-05-12T14:35:58.489Z,54.94
2018-05-12T14:39:01.012Z,55.35
2018-05-12T14:42:03.716Z,55.79
2018-05-12T14:45:06.182Z,56.52
2018-05-12T14:48:08.766Z,56.87
2018-05-12T14:51:11.233Z,54.39
2018-05-12T14:54:13.732Z,54.49
2018-05-12T14:57:16.210Z,52.05
2018-05-12T15:00:18.787Z,53.91
2018-05-12T15:03:21.346Z,53.33
2018-05-12T15:06:23.894Z,54.71
2018-05-12T15:09:26.422Z,54.84
2018-05-12T15:12:28.932Z,56.35
2018-05-12T15:15:31.501Z,56.57
2018-05-12T15:18:34.036Z,55.94
2018-05-12T15:21:36.512Z,55.84
2018-05-12T15:24:39.027Z,56.36
2018-05-12T15:27:41.546Z,56.32
2018-05-12T15:30:44.054Z,56.97
2018-05-12T15:33:46.566Z,57.83
2018-05-12T15:36:49.047Z,58.26
2018-05-12T15:39:51.484Z,57.48
2018-05-12T15:42:53.996Z,57.98
2018-05-12T15:45:56.716Z,58.22
2018-05-12T15:48:59.232Z,59.05
2018-05-12T15:52:01.678Z,59.58
2018-05-12T15:55:04.192Z,59.43
2018-05-12T15:58:06.763Z,60.31
2018-05-12T16:01:09.328Z,59.83
2018-05-12T16:04:11.777Z,60.12
2018-05-12T16:07:14.243Z,59.38
2018-05-12T16:10:16.811Z,58.23
2018-05-12T16:13:19.305Z,59.80
2018-05-12T16:16:21.796Z,59.80
2018-05-12T16:19:24.286Z,60.43
2018-05-12T16:22:26.764Z,60.84
2018-05-12T16:25:29.253Z,61.21
2018-05-12T16:28:31.885Z,60.65
2018-05-12T16:31:34.390Z,59.78
2018-05-12T16:34:36.908Z,59.74
2018-05-12T16:37:39.415Z,59.51
2018-05-12T16:40:41.852Z,60.09
2018-05-12T16:43:44.332Z,60.92
2018-05-12T16:46:46.863Z,60.41
2018-05-12T16:49:49.401Z,60.84
2018-05-12T16:52:52.023Z,61.44
2018-05-12T16:55:54.531Z,62.37
2018-05-12T16:58:57.016Z,62.21
2018-05-12T17:01:59.524Z,62.45
2018-05-12T17:05:02.058Z,61.60
2018-05-12T17:08:04.594Z,62.07
2018-05-12T17:11:07.058Z,63.05
2018-05-12T17:14:09.615Z,62.45
2018-05-12T17:17:12.191Z,62.31
2018-05-12T17:20:14.643Z,63.34
2018-05-12T17:23:17.216Z,63.20
2018-05-12T17:26:19.767Z,64.39
2018-05-12T17:29:22.318Z,63.85
2018-05-12T17:32:24.883Z,64.99
2018-05-12T17:35:27.353Z,64.40
2018-05-12T17:38:29.900Z,64.73
2018-05-12T17:41:32.468Z,65.75
2018-05-12T17:44:35.028Z,66.03
2018-05-12T17:47:37.593Z,66.62
2018-05-12T17:50:40.079Z,67.01
2018-05-12T17:53:42.592Z,67.15
2018-05-12T17:56:45.187Z,67.85
2018-05-12T17:59:47.743Z,68.44
2018-05-12T18:02:50.239Z,68.23
2018-05-12T18:05:52.778Z,68.57
2018-05-12T18:08:55.258Z,69.25
2018-05-12T18:11:57.700Z,69.56
2018-05-12T18:15:00.204Z,69.88
2018-05-12T18:18:02.696Z,69.94
2018-05-12T18:21:05.388Z,70.71
2018-05-12T18:24:07.873Z,71.22
2018-05-12T18:27:10.429Z,71.74
2018-05-12T18:30:12.935Z,71.96
2018-05-12T18:33:15.524Z,72.37
2018-05-12T18:36:18.080Z,72.80
2018-05-12T18:39:20.554Z,73.24
2018-05-12T18:42:23.073Z,73.65
2018-05-12T18:45:25.533Z,73.61
2018-05-12T18:48:28.048Z,73.94
2018-05-12T18:51:30.527Z,74.22
2018-05-12T18:54:33.009Z,74.61
2018-05-12T18:57:35.527Z,75.03
2018-05-12T19:00:38.123Z,75.79
2018-05-12T19:03:40.590Z,76.21
2018-05-12T19:06:43.103Z,76.53
2018-05-12T19:09:45.628Z,77.18
2018-05-12T19:12:48.124Z,77.21
2018-05-12T19:15:50.639Z,77.55
2018-05-12T19:18:53.145Z,77.76
2018-05-12T19:21:55.728Z,77.87
2018-05-12T19:24:58.245Z,78.31
2018-05-12T19:28:00.721Z,78.64
2018-05-12T19:31:03.226Z,79.14
2018-05-12T19:34:05.701Z,80.19
2018-05-12T19:37:08.201Z,80.46
2018-05-12T19:40:10.703Z,80.84
2018-05-12T19:43:13.298Z,81.09
2018-05-12T19:46:15.880Z,81.12
2018-05-12T19:49:18.382Z,81.30
2018-05-12T19:52:20.921Z,81.53
2018-05-12T19:55:23.415Z,81.75
2018-05-12T19:58:25.879Z,82.07
2018-05-12T20:01:28.461Z,82.15
2018-05-12T20:04:31.180Z,81.85
2018-05-12T20:07:33.709Z,82.15
2018-05-12T20:10:36.203Z,82.39
2018-05-12T20:13:38.710Z,82.33
2018-05-12T20:16:41.273Z,82.33
2018-05-12T20:19:43.730Z,82.55
2018-05-12T20:22:46.247Z,82.13
2018-05-12T20:25:48.806Z,82.25
2018-05-12T20:28:51.352Z,82.22
2018-05-12T20:31:53.892Z,82.26
2018-05-12T20:34:56.430Z,82.20
2018-05-12T20:37:59.020Z,82.13
2018-05-12T20:41:01.515Z,81.87
2018-05-12T20:44:03.955Z,82.01
2018-05-12T20:47:06.416Z,82.01
2018-05-12T20:50:08.805Z,82.23
2018-05-12T20:53:11.429Z,82.16
2018-05-12T20:56:13.811Z,82.27
2018-05-12T20:59:16.308Z,82.43
2018-05-12T21:02:18.745Z,82.82
2018-05-12T21:05:21.255Z,82.76
2018-05-12T21:08:23.822Z,82.77
2018-05-12T21:11:26.414Z,82.91
2018-05-12T21:14:28.752Z,83.44
2018-05-12T21:17:31.266Z,83.52
2018-05-12T21:20:33.754Z,83.73
2018-05-12T21:23:36.289Z,83.70
2018-05-12T21:26:38.800Z,83.94
2018-05-12T21:29:41.320Z,84.03
2018-05-12T21:32:43.934Z,84.25
2018-05-12T21:35:46.466Z,84.88
2018-05-12T21:38:48.955Z,85.06
2018-05-12T21:41:51.465Z,85.55
2018-05-12T21:44:54.035Z,85.50
2018-05-12T21:47:56.796Z,85.55
2018-05-12T21:50:59.707Z,85.43
2018-05-12T21:54:02.482Z,85.18
2018-05-12T21:57:05.331Z,85.13
2018-05-12T22:00:07.976Z,84.97
2018-05-12T22:03:10.521Z,84.42
2018-05-12T22:06:13.156Z,84.43
2018-05-12T22:09:15.750Z,83.52
2018-05-12T22:12:18.405Z,83.52
2018-05-12T22:15:21.025Z,83.30
2018-05-12T22:18:23.566Z,83.41
2018-05-12T22:21:26.204Z,83.55
2018-05-12T22:24:29.115Z,83.94
2018-05-12T22:27:31.714Z,83.99
2018-05-12T22:30:34.265Z,84.28
2018-05-12T22:33:36.761Z,84.41
2018-05-12T22:36:39.312Z,84.56
2018-05-12T22:39:41.841Z,85.09
2018-05-12T22:42:44.283Z,85.44
2018-05-12T22:45:46.771Z,85.77
2018-05-12T22:48:49.271Z,85.50
2018-05-12T22:51:51.813Z,85.92
2018-05-12T22:54:54.342Z,85.86
2018-05-12T22:57:56.875Z,86.24
2018-05-12T23:00:59.330Z,85.45
2018-05-12T23:04:01.837Z,85.37
2018-05-12T23:07:04.323Z,85.18
2018-05-12T23:10:06.806Z,84.89
2018-05-12T23:13:09.316Z,84.20
2018-05-12T23:16:11.965Z,84.05
2018-05-12T23:19:14.441Z,84.07
2018-05-12T23:22:17.044Z,83.32
2018-05-12T23:25:19.551Z,83.78
2018-05-12T23:28:22.052Z,83.85
2018-05-12T23:31:24.661Z,84.02
2018-05-12T23:34:27.132Z,84.01
2018-05-12T23:37:29.616Z,84.15
2018-05-12T23:40:32.096Z,84.32
2018-05-12T23:43:34.581Z,84.04
2018-05-12T23:46:37.058Z,84.17
2018-05-12T23:49:39.505Z,84.31
2018-05-12T23:52:44.020Z,84.55
2018-05-12T23:55:46.586Z,84.81
2018-05-12T23:58:49.082Z,84.98
